首页
METAR-TAF:

METAR-TAF

机场 :

維也納國際機場

維也納, 奥地利

纬度: 48-07N, 经度: 016-34E, 海拔: 183米

当前天气观测

该预报发布于34分钟前的01:20 UTC
风速3节,风向东转东北,在东北东转东南之间变化
温度 -5°C
湿度 86%
气压 1005 hPa
能見度: 6000
少量云层高于600英尺
多云层高于800英尺

METAR: LOWW 230120Z 07003KT 040V120 6000 FEW006 BKN008 M05/M07 Q1005 R88/19//95 NOSIG

时间: 02:54 (01:54 UTC)

预报

该预报发布于2小时和39分钟前的23:15 UTC
预报有效从23日的 00点(UTC)到 24日的 06点(UTC)
风速2节,风向多变
能見度: 6000
少量云层高于500英尺
阴天层高于700英尺
短暂存在
从 23日的 00点(UTC)到 23日的 05点(UTC)
能見度: 2000
阴天层高于300英尺
轻雾
成为
从 23日的 05点(UTC)到 23日的 08点(UTC)
少量云层高于1200英尺
多云层高于2000英尺
小雪
短暂存在
从 23日的 05点(UTC)到 23日的 18点(UTC)
能見度: 3000
多云层高于1200英尺
小雪, 轻雾
几率 30% :
短暂存在
从 23日的 09点(UTC)到 23日的 15点(UTC)
风速8节,风向东南
能見度: 1200
层高于800英尺
短暂存在
从 23日的 18点(UTC)到 24日的 06点(UTC)
能見度: 4000
多云层高于800英尺
轻雾

TAF: LOWW 222315Z 2300/2406 VRB02KT 6000 FEW005 OVC007 TXM03/2404Z TNM06/2303Z TEMPO 2300/2305 2000 BR OVC003 BECMG 2305/2308 -SN FEW012 BKN020 TEMPO 2305/2318 3000 -SN BR BKN012 PROB30 TEMPO 2309/2315 13008KT 1200 SN VV008 TEMPO 2318/2406 4000 BR BKN008

超过4000个机场的气象观测和天气预报(METAR&TAF报告)。

可查询的气象台以黄色和红色小点在地图上表示。

将鼠标移到小点上方,可查看气象台名称。

然后点击查看天气观测和预报。

如需切换地图:点击带黑十字的绿色按钮放大地图;点击带横线的绿色按钮缩小地图;或者点击绿色箭头查看邻近地区的地图。


METAR-TAF: